createdAt,value
2022-11-26T00:00:37.528Z,6.07
2022-11-26T00:03:07.750Z,6.07
2022-11-26T00:05:37.026Z,6.09
2022-11-26T00:08:05.793Z,5.88
2022-11-26T00:10:42.106Z,6.05
2022-11-26T00:13:17.808Z,6.07
2022-11-26T00:15:48.045Z,5.81
2022-11-26T00:18:16.599Z,6.09
2022-11-26T00:20:47.230Z,6.06
2022-11-26T00:23:22.016Z,6.06
2022-11-26T00:25:53.666Z,6.04
2022-11-26T00:28:29.207Z,5.99
2022-11-26T00:31:01.519Z,6.05
2022-11-26T00:33:33.431Z,6.00
2022-11-26T00:36:07.245Z,6.06
2022-11-26T00:38:39.205Z,6.15
2022-11-26T00:41:16.432Z,6.18
2022-11-26T00:43:46.141Z,6.09
2022-11-26T00:46:17.845Z,6.10
2022-11-26T00:48:46.681Z,6.11
2022-11-26T00:51:18.435Z,6.06
2022-11-26T00:53:48.454Z,6.10
2022-11-26T00:56:20.344Z,6.04
2022-11-26T00:58:50.692Z,6.01
2022-11-26T01:01:23.807Z,6.09
2022-11-26T01:03:54.947Z,6.13
2022-11-26T01:06:28.966Z,5.98
2022-11-26T01:09:00.286Z,6.09
2022-11-26T01:11:29.039Z,6.05
2022-11-26T01:13:57.632Z,6.07
2022-11-26T01:16:30.095Z,6.02
2022-11-26T01:19:02.451Z,5.87
2022-11-26T01:21:59.086Z,6.07
2022-11-26T01:24:39.331Z,6.03
2022-11-26T01:27:13.097Z,6.09
2022-11-26T01:29:41.599Z,6.09
2022-11-26T01:32:12.257Z,6.11
2022-11-26T01:34:41.217Z,6.19
2022-11-26T01:37:14.797Z,5.89
2022-11-26T01:39:43.781Z,6.22
2022-11-26T01:42:27.635Z,6.12
2022-11-26T01:44:56.571Z,6.19
2022-11-26T01:47:30.618Z,6.18
2022-11-26T01:50:36.492Z,6.10
2022-11-26T01:53:08.649Z,5.96
2022-11-26T01:55:43.202Z,6.05
2022-11-26T01:58:18.955Z,6.13
2022-11-26T02:00:50.586Z,6.16
2022-11-26T02:03:21.963Z,5.97
2022-11-26T02:06:09.388Z,6.07
2022-11-26T02:08:39.409Z,6.16
2022-11-26T02:11:19.592Z,5.80
2022-11-26T02:13:50.304Z,6.19
2022-11-26T02:16:33.368Z,6.10
2022-11-26T02:19:31.565Z,6.10
2022-11-26T02:22:11.485Z,6.16
2022-11-26T02:24:54.737Z,6.14
2022-11-26T02:27:52.234Z,6.06
2022-11-26T02:30:22.050Z,6.15
2022-11-26T02:32:59.593Z,6.16
2022-11-26T02:35:34.345Z,6.17
2022-11-26T02:38:08.538Z,6.18
2022-11-26T02:40:37.305Z,6.28
2022-11-26T02:43:07.552Z,6.32
2022-11-26T02:45:41.712Z,6.34
2022-11-26T02:48:16.874Z,6.26
2022-11-26T02:50:51.286Z,6.20
2022-11-26T02:53:23.992Z,6.08
2022-11-26T02:55:58.724Z,6.17
2022-11-26T02:58:27.832Z,6.12
2022-11-26T03:01:00.915Z,6.13
2022-11-26T03:03:33.881Z,6.21
2022-11-26T03:06:05.553Z,6.37
2022-11-26T03:08:35.765Z,6.42
2022-11-26T03:11:04.653Z,6.34
2022-11-26T03:13:33.109Z,6.43
2022-11-26T03:16:07.112Z,6.26
2022-11-26T03:18:40.070Z,6.31
2022-11-26T03:21:11.696Z,6.33
2022-11-26T03:23:40.902Z,6.30
2022-11-26T03:26:10.922Z,6.38
2022-11-26T03:28:39.986Z,6.37
2022-11-26T03:31:10.820Z,6.29
2022-11-26T03:33:39.488Z,6.24
2022-11-26T03:36:09.316Z,6.34
2022-11-26T03:38:39.499Z,6.44
2022-11-26T03:41:11.208Z,6.38
2022-11-26T03:43:40.091Z,6.44
2022-11-26T03:46:10.610Z,6.36
2022-11-26T03:48:40.910Z,6.16
2022-11-26T03:51:10.407Z,6.41
2022-11-26T03:53:39.805Z,6.46
2022-11-26T03:56:10.388Z,6.46
2022-11-26T03:58:40.158Z,6.36
2022-11-26T04:01:15.711Z,6.40
2022-11-26T04:03:44.168Z,6.21
2022-11-26T04:06:13.618Z,6.44
2022-11-26T04:08:42.217Z,6.46
2022-11-26T04:11:10.758Z,6.38
2022-11-26T04:13:39.518Z,6.47
2022-11-26T04:16:08.806Z,6.47
2022-11-26T04:18:39.710Z,6.37
2022-11-26T04:21:10.609Z,6.22
2022-11-26T04:23:39.908Z,6.33
2022-11-26T04:26:11.316Z,6.42
2022-11-26T04:28:40.699Z,6.31
2022-11-26T04:31:09.112Z,6.36
2022-11-26T04:33:39.675Z,6.43
2022-11-26T04:36:10.677Z,6.34
2022-11-26T04:38:40.491Z,6.38
2022-11-26T04:41:10.279Z,6.40
2022-11-26T04:43:38.763Z,6.17
2022-11-26T04:46:08.724Z,6.33
2022-11-26T04:48:38.597Z,6.40
2022-11-26T04:51:07.584Z,6.20
2022-11-26T04:53:36.842Z,6.39
2022-11-26T04:56:07.913Z,6.16
2022-11-26T04:58:37.277Z,6.34
2022-11-26T05:01:05.986Z,6.36
2022-11-26T05:03:38.303Z,6.19
2022-11-26T05:06:11.747Z,6.23
2022-11-26T05:08:40.701Z,6.28
2022-11-26T05:11:09.269Z,6.27
2022-11-26T05:13:37.852Z,6.38
2022-11-26T05:16:07.131Z,6.38
2022-11-26T05:18:36.466Z,6.39
2022-11-26T05:21:08.740Z,6.24
2022-11-26T05:23:38.038Z,6.32
2022-11-26T05:26:06.942Z,6.13
2022-11-26T05:28:35.957Z,6.39
2022-11-26T05:31:08.411Z,6.37
2022-11-26T05:33:37.057Z,6.30
2022-11-26T05:36:08.855Z,6.29
2022-11-26T05:38:41.269Z,6.32
2022-11-26T05:41:10.155Z,6.19
2022-11-26T05:43:39.606Z,6.23
2022-11-26T05:46:09.515Z,6.21
2022-11-26T05:48:41.900Z,6.29
2022-11-26T05:51:10.736Z,6.41
2022-11-26T05:53:44.304Z,6.47
2022-11-26T05:56:12.841Z,6.50
2022-11-26T05:58:43.646Z,6.34
2022-11-26T06:01:14.011Z,6.46
2022-11-26T06:03:43.454Z,6.46
2022-11-26T06:06:12.255Z,6.31
2022-11-26T06:08:42.192Z,6.33
2022-11-26T06:11:15.079Z,6.42
2022-11-26T06:13:43.579Z,6.50
2022-11-26T06:16:12.966Z,6.57
2022-11-26T06:18:41.716Z,6.52
2022-11-26T06:21:10.241Z,6.47
2022-11-26T06:23:51.639Z,6.45
2022-11-26T06:26:21.738Z,6.50
2022-11-26T06:28:50.395Z,6.52
2022-11-26T06:31:18.737Z,6.52
2022-11-26T06:33:47.494Z,6.56
2022-11-26T06:36:15.978Z,6.58
2022-11-26T06:38:45.538Z,6.56
2022-11-26T06:41:13.811Z,6.59
2022-11-26T06:43:42.323Z,6.57
2022-11-26T06:46:12.602Z,6.59
2022-11-26T06:48:41.361Z,6.37
2022-11-26T06:51:12.080Z,6.55
2022-11-26T06:53:41.047Z,6.58
2022-11-26T06:56:18.782Z,6.57
2022-11-26T06:58:48.227Z,6.57
2022-11-26T07:01:18.479Z,6.48
2022-11-26T07:03:46.994Z,6.47
2022-11-26T07:06:19.749Z,6.40
2022-11-26T07:08:48.789Z,6.64
2022-11-26T07:11:20.576Z,6.49
2022-11-26T07:13:50.367Z,6.58
2022-11-26T07:16:19.437Z,6.49
2022-11-26T07:18:50.460Z,6.59
2022-11-26T07:21:19.862Z,6.64
2022-11-26T07:23:48.856Z,6.49
2022-11-26T07:26:22.322Z,6.61
2022-11-26T07:28:51.861Z,6.43
2022-11-26T07:31:23.681Z,6.53
2022-11-26T07:33:52.573Z,6.63
2022-11-26T07:36:23.631Z,6.44
2022-11-26T07:38:52.364Z,6.65
2022-11-26T07:41:23.098Z,6.61
2022-11-26T07:43:51.830Z,6.55
2022-11-26T07:46:23.006Z,6.61
2022-11-26T07:48:51.721Z,6.61
2022-11-26T07:51:23.998Z,6.39
2022-11-26T07:53:53.106Z,6.53
2022-11-26T07:56:22.921Z,6.64
2022-11-26T07:58:52.123Z,6.66
2022-11-26T08:01:47.239Z,6.51
2022-11-26T08:04:15.906Z,6.56
2022-11-26T08:06:44.127Z,6.47
2022-11-26T08:09:12.319Z,6.65
2022-11-26T08:11:42.336Z,6.65
2022-11-26T08:14:13.077Z,6.67
2022-11-26T08:16:41.734Z,6.63
2022-11-26T08:19:13.200Z,6.64
2022-11-26T08:21:42.066Z,6.47
2022-11-26T08:24:16.004Z,6.66
2022-11-26T08:26:47.722Z,6.68
2022-11-26T08:29:18.747Z,6.71
2022-11-26T08:31:47.904Z,6.41
2022-11-26T08:34:18.036Z,6.46
2022-11-26T08:36:51.341Z,6.64
2022-11-26T08:39:20.720Z,6.54
2022-11-26T08:41:52.909Z,6.72
2022-11-26T08:44:28.841Z,6.72
2022-11-26T08:47:18.675Z,6.73
2022-11-26T08:49:52.000Z,6.81
2022-11-26T08:52:37.573Z,6.58
2022-11-26T08:55:13.193Z,6.58
2022-11-26T08:57:50.721Z,6.67
2022-11-26T09:00:21.265Z,6.67
2022-11-26T09:02:53.271Z,6.85
2022-11-26T09:05:23.340Z,6.90
2022-11-26T09:07:53.591Z,6.76
2022-11-26T09:10:26.746Z,6.86
2022-11-26T09:13:02.239Z,6.64
2022-11-26T09:15:43.528Z,6.90
2022-11-26T09:18:14.045Z,6.42
2022-11-26T09:20:43.364Z,7.00
2022-11-26T09:23:17.384Z,6.98
2022-11-26T09:25:46.210Z,7.06
2022-11-26T09:32:21.909Z,7.07
2022-11-26T09:34:45.764Z,6.79
2022-11-26T09:37:21.617Z,7.12
2022-11-26T09:39:53.894Z,6.98
2022-11-26T09:42:34.324Z,6.94
2022-11-26T09:45:16.748Z,6.94
2022-11-26T09:47:54.210Z,7.26
2022-11-26T09:56:39.524Z,7.06
2022-11-26T09:59:17.798Z,7.22
2022-11-26T10:01:50.253Z,7.19
2022-11-26T10:04:37.176Z,7.24
2022-11-26T10:07:10.853Z,7.22
2022-11-26T10:10:04.931Z,7.21
2022-11-26T10:16:04.674Z,7.26
2022-11-26T10:25:26.457Z,7.25
2022-11-26T10:27:57.259Z,7.25
2022-11-26T10:30:45.407Z,7.11
2022-11-26T10:33:23.507Z,7.29
2022-11-26T10:39:06.351Z,7.29
2022-11-26T10:41:40.317Z,7.36
2022-11-26T10:44:52.677Z,7.38
2022-11-26T10:47:31.441Z,7.42
2022-11-26T10:53:24.771Z,7.43
2022-11-26T10:56:15.171Z,7.50
2022-11-26T10:58:49.672Z,7.54
2022-11-26T11:04:44.721Z,7.49
2022-11-26T11:10:20.254Z,7.31
2022-11-26T11:13:04.629Z,7.60
2022-11-26T11:15:39.261Z,7.54
2022-11-26T11:18:17.234Z,7.70
2022-11-26T11:20:54.098Z,7.59
2022-11-26T11:23:45.806Z,7.54
2022-11-26T11:26:22.548Z,7.25
2022-11-26T11:28:56.094Z,7.47
2022-11-26T11:31:30.341Z,7.65
2022-11-26T11:34:21.743Z,7.52
2022-11-26T11:39:55.058Z,7.70
2022-11-26T11:42:29.503Z,7.70
2022-11-26T11:45:02.667Z,7.66
2022-11-26T11:47:38.267Z,7.65
2022-11-26T11:50:19.333Z,7.48
2022-11-26T11:53:01.698Z,7.21
2022-11-26T11:59:07.007Z,7.72
2022-11-26T12:05:19.294Z,7.61
2022-11-26T12:07:59.709Z,7.59
2022-11-26T12:10:40.581Z,7.73
2022-11-26T12:13:15.312Z,7.61
2022-11-26T12:15:53.549Z,7.36
2022-11-26T12:18:35.702Z,7.76
2022-11-26T12:21:13.789Z,7.81
2022-11-26T12:23:50.524Z,7.81
2022-11-26T12:26:26.039Z,7.79
2022-11-26T12:28:58.712Z,7.89
2022-11-26T12:31:34.594Z,7.65
2022-11-26T12:34:13.038Z,7.67
2022-11-26T12:36:50.060Z,7.78
2022-11-26T12:39:32.814Z,8.01
2022-11-26T12:42:07.641Z,7.83
2022-11-26T12:44:44.397Z,8.06
2022-11-26T12:47:22.208Z,8.05
2022-11-26T12:50:09.841Z,8.09
2022-11-26T12:52:46.150Z,8.10
2022-11-26T12:55:20.902Z,7.83
2022-11-26T12:57:53.350Z,8.11
2022-11-26T13:00:31.359Z,8.10
2022-11-26T13:03:05.213Z,8.11
2022-11-26T13:05:51.809Z,8.08
2022-11-26T13:08:37.824Z,8.11
2022-11-26T13:11:21.993Z,7.98
2022-11-26T13:14:03.068Z,8.14
2022-11-26T13:16:38.455Z,8.13
2022-11-26T13:19:12.369Z,8.23
2022-11-26T13:22:19.114Z,8.06
2022-11-26T13:25:01.158Z,8.13
2022-11-26T13:27:41.303Z,8.17
2022-11-26T13:30:24.748Z,8.18
2022-11-26T13:33:32.327Z,7.91
2022-11-26T13:36:20.348Z,8.12
2022-11-26T13:39:11.724Z,8.00
2022-11-26T13:42:08.763Z,8.00
2022-11-26T13:45:05.882Z,7.95
2022-11-26T13:47:40.507Z,8.05
2022-11-26T13:50:17.214Z,7.86
2022-11-26T13:52:51.883Z,7.88
2022-11-26T13:55:30.663Z,7.86
2022-11-26T13:58:03.007Z,8.06
2022-11-26T14:00:33.425Z,8.11
2022-11-26T14:03:03.354Z,8.05
2022-11-26T14:06:10.348Z,8.13
2022-11-26T14:08:42.018Z,8.18
2022-11-26T14:11:19.717Z,8.14
2022-11-26T14:14:30.181Z,8.08
2022-11-26T14:17:24.265Z,8.11
2022-11-26T14:20:13.361Z,8.15
2022-11-26T14:22:45.059Z,8.16
2022-11-26T14:25:15.835Z,8.17
2022-11-26T14:27:56.230Z,7.91
2022-11-26T14:30:27.710Z,8.20
2022-11-26T14:33:14.896Z,8.04
2022-11-26T14:35:57.083Z,8.11
2022-11-26T14:38:29.576Z,8.28
2022-11-26T14:41:00.360Z,8.27
2022-11-26T14:43:30.935Z,8.23
2022-11-26T14:46:10.819Z,8.15
2022-11-26T14:48:45.172Z,7.92
2022-11-26T14:51:22.870Z,8.12
2022-11-26T14:53:53.264Z,8.18
2022-11-26T14:56:25.447Z,8.24
2022-11-26T14:58:59.546Z,8.06
2022-11-26T15:01:32.048Z,8.20
2022-11-26T15:04:02.611Z,8.28
2022-11-26T15:06:38.327Z,8.09
2022-11-26T15:09:11.564Z,8.16
2022-11-26T15:11:45.841Z,7.90
2022-11-26T15:14:23.870Z,8.08
2022-11-26T15:17:02.423Z,8.10
2022-11-26T15:19:36.728Z,8.17
2022-11-26T15:22:10.436Z,7.96
2022-11-26T15:24:42.417Z,7.93
2022-11-26T15:27:30.721Z,8.12
2022-11-26T15:30:03.647Z,8.12
2022-11-26T15:32:38.498Z,8.07
2022-11-26T15:38:15.860Z,7.97
2022-11-26T15:40:49.970Z,8.09
2022-11-26T15:43:27.161Z,8.04
2022-11-26T15:46:00.531Z,8.05
2022-11-26T15:48:50.817Z,8.02
2022-11-26T15:51:32.134Z,8.01
2022-11-26T15:54:07.995Z,8.12
2022-11-26T15:56:40.423Z,7.98
2022-11-26T15:59:20.085Z,8.14
2022-11-26T16:01:50.190Z,7.95
2022-11-26T16:04:44.377Z,7.88
2022-11-26T16:07:16.798Z,8.19
2022-11-26T16:09:46.325Z,8.12
2022-11-26T16:12:34.732Z,8.07
2022-11-26T16:15:21.751Z,8.13
2022-11-26T16:17:56.481Z,8.09
2022-11-26T16:23:23.141Z,8.21
2022-11-26T16:26:13.071Z,8.21
2022-11-26T16:28:44.387Z,8.30
2022-11-26T16:31:13.208Z,8.09
2022-11-26T16:33:48.285Z,8.21
2022-11-26T16:36:39.123Z,8.18
2022-11-26T16:39:11.202Z,8.21
2022-11-26T16:41:47.596Z,8.16
2022-11-26T16:44:18.077Z,7.95
2022-11-26T16:46:59.530Z,8.31
2022-11-26T16:49:32.203Z,8.23
2022-11-26T16:52:13.209Z,8.45
2022-11-26T16:54:44.603Z,8.45
2022-11-26T16:57:16.429Z,8.36
2022-11-26T16:59:47.475Z,8.42
2022-11-26T17:02:18.397Z,8.45
2022-11-26T17:04:48.436Z,8.40
2022-11-26T17:07:21.202Z,8.29
2022-11-26T17:09:50.759Z,8.32
2022-11-26T17:12:22.651Z,8.39
2022-11-26T17:17:31.141Z,8.06
2022-11-26T17:20:02.194Z,8.41
2022-11-26T17:22:32.514Z,8.41
2022-11-26T17:25:08.953Z,8.42
2022-11-26T17:27:39.361Z,8.53
2022-11-26T17:30:09.824Z,8.52
2022-11-26T17:32:43.689Z,8.39
2022-11-26T17:35:17.232Z,8.11
2022-11-26T17:37:46.783Z,8.36
2022-11-26T17:40:19.123Z,8.20
2022-11-26T17:42:50.949Z,8.02
2022-11-26T17:48:24.264Z,8.39
2022-11-26T17:50:59.064Z,8.40
2022-11-26T17:56:28.014Z,8.40
2022-11-26T18:04:21.956Z,8.44
2022-11-26T18:07:03.322Z,8.35
2022-11-26T18:09:34.803Z,8.34
2022-11-26T18:12:10.066Z,8.46
2022-11-26T18:14:47.662Z,8.40
2022-11-26T18:17:18.435Z,8.40
2022-11-26T18:19:54.119Z,8.33
2022-11-26T18:22:28.545Z,8.41
2022-11-26T18:25:14.624Z,8.43
2022-11-26T18:27:43.985Z,8.50
2022-11-26T18:30:16.038Z,8.45
2022-11-26T18:32:51.158Z,8.48
2022-11-26T18:35:25.247Z,8.43
2022-11-26T18:37:59.185Z,8.42
2022-11-26T18:40:30.614Z,8.40
2022-11-26T18:43:00.177Z,8.40
2022-11-26T18:48:20.052Z,8.28
2022-11-26T18:51:01.148Z,8.15
2022-11-26T18:53:52.637Z,8.35
2022-11-26T18:56:25.736Z,8.32
2022-11-26T18:58:58.405Z,8.24
2022-11-26T19:04:25.862Z,8.13
2022-11-26T19:06:57.589Z,8.27
2022-11-26T19:09:28.813Z,8.39
2022-11-26T19:12:03.690Z,8.23
2022-11-26T19:14:33.252Z,8.14
2022-11-26T19:17:03.637Z,8.41
2022-11-26T19:19:33.583Z,8.50
2022-11-26T19:22:02.610Z,8.53
2022-11-26T19:24:32.858Z,8.48
2022-11-26T19:27:01.805Z,8.16
2022-11-26T19:29:30.987Z,8.46
2022-11-26T19:31:59.421Z,8.27
2022-11-26T19:34:28.490Z,8.31
2022-11-26T19:36:58.090Z,8.44
2022-11-26T19:39:27.867Z,8.31
2022-11-26T19:42:00.438Z,8.35
2022-11-26T19:44:29.349Z,8.54
2022-11-26T19:46:59.167Z,8.26
2022-11-26T19:49:29.306Z,8.53
2022-11-26T19:51:59.373Z,8.57
2022-11-26T19:54:29.117Z,8.50
2022-11-26T19:57:00.644Z,8.47
2022-11-26T19:59:30.825Z,8.56
2022-11-26T20:02:01.073Z,8.12
2022-11-26T20:04:32.681Z,8.45
2022-11-26T20:07:01.729Z,8.57
2022-11-26T20:09:30.356Z,8.47
2022-11-26T20:12:01.771Z,8.41
2022-11-26T20:14:31.480Z,8.40
2022-11-26T20:17:01.350Z,8.60
2022-11-26T20:19:30.194Z,8.62
2022-11-26T20:21:59.739Z,8.52
2022-11-26T20:24:28.346Z,8.62
2022-11-26T20:26:57.981Z,8.48
2022-11-26T20:29:31.255Z,8.53
2022-11-26T20:32:00.507Z,8.39
2022-11-26T20:34:30.271Z,8.54
2022-11-26T20:36:59.127Z,8.48
2022-11-26T20:39:30.006Z,8.51
2022-11-26T20:41:58.945Z,8.50
2022-11-26T20:44:29.295Z,8.52
2022-11-26T20:46:59.370Z,8.55
2022-11-26T20:49:33.386Z,8.51
2022-11-26T20:52:03.416Z,8.27
2022-11-26T20:54:36.355Z,8.53
2022-11-26T20:57:07.783Z,8.48
2022-11-26T20:59:42.079Z,8.32
2022-11-26T21:02:11.682Z,8.52
2022-11-26T21:04:41.448Z,8.54
2022-11-26T21:07:09.987Z,8.41
2022-11-26T21:09:40.481Z,8.35
2022-11-26T21:12:09.113Z,8.55
2022-11-26T21:14:39.624Z,8.35
2022-11-26T21:17:08.814Z,8.43
2022-11-26T21:19:40.219Z,8.53
2022-11-26T21:22:12.072Z,8.56
2022-11-26T21:24:41.124Z,8.47
2022-11-26T21:27:09.739Z,8.60
2022-11-26T21:29:42.603Z,8.59
2022-11-26T21:32:11.625Z,8.58
2022-11-26T21:34:39.917Z,8.67
2022-11-26T21:37:09.758Z,8.64
2022-11-26T21:39:38.990Z,8.59
2022-11-26T21:42:08.202Z,8.61
2022-11-26T21:44:54.903Z,8.37
2022-11-26T21:47:26.578Z,8.47
2022-11-26T21:49:55.426Z,8.47
2022-11-26T21:52:23.979Z,8.50
2022-11-26T21:54:59.628Z,8.45
2022-11-26T21:57:32.571Z,8.25
2022-11-26T22:00:01.537Z,8.56
2022-11-26T22:02:31.688Z,8.56
2022-11-26T22:05:00.961Z,8.54
2022-11-26T22:07:30.394Z,8.33
2022-11-26T22:09:59.015Z,8.56
2022-11-26T22:12:27.868Z,8.51
2022-11-26T22:14:57.276Z,8.56
2022-11-26T22:17:25.787Z,8.61
2022-11-26T22:19:56.193Z,8.33
2022-11-26T22:22:24.856Z,8.61
2022-11-26T22:24:53.237Z,8.59
2022-11-26T22:27:22.481Z,8.58
2022-11-26T22:29:50.666Z,8.59
2022-11-26T22:32:19.988Z,8.48
2022-11-26T22:34:48.905Z,8.54
2022-11-26T22:37:18.731Z,8.52
2022-11-26T22:39:51.158Z,8.46
2022-11-26T22:42:24.243Z,8.56
2022-11-26T22:44:52.519Z,8.61
2022-11-26T22:47:21.103Z,8.52
2022-11-26T22:49:50.194Z,8.50
2022-11-26T22:52:21.456Z,8.50
2022-11-26T22:54:49.939Z,8.53
2022-11-26T22:57:24.975Z,8.55
2022-11-26T22:59:54.111Z,8.42
2022-11-26T23:02:23.556Z,8.45
2022-11-26T23:04:53.769Z,8.31
2022-11-26T23:07:23.875Z,8.47
2022-11-26T23:09:52.223Z,8.20
2022-11-26T23:12:20.687Z,8.53
2022-11-26T23:14:50.506Z,8.49
2022-11-26T23:17:19.197Z,8.51
2022-11-26T23:19:48.116Z,8.40
2022-11-26T23:22:16.641Z,8.13
2022-11-26T23:24:46.622Z,8.31
2022-11-26T23:27:14.757Z,8.38
2022-11-26T23:29:45.450Z,8.21
2022-11-26T23:32:13.802Z,8.20
2022-11-26T23:34:42.034Z,8.20
2022-11-26T23:37:10.548Z,8.31
2022-11-26T23:39:39.139Z,8.44
2022-11-26T23:42:09.090Z,8.46
2022-11-26T23:44:37.762Z,8.27
2022-11-26T23:47:06.309Z,8.08
2022-11-26T23:49:34.678Z,8.50
2022-11-26T23:52:04.400Z,8.22
2022-11-26T23:54:32.715Z,8.50
2022-11-26T23:57:01.050Z,8.46
2022-11-26T23:59:31.628Z,8.16
